createdAt,value
2023-03-16T00:04:20.193Z,99864.31
2023-03-16T00:09:42.703Z,99868.69
2023-03-16T00:15:05.297Z,99866.19
2023-03-16T00:20:28.399Z,99859.97
2023-03-16T00:25:54.364Z,99850.44
2023-03-16T00:31:16.449Z,99856.66
2023-03-16T00:36:38.906Z,99852.94
2023-03-16T00:42:01.587Z,99830.91
2023-03-16T00:47:34.745Z,99856.41
2023-03-16T00:52:56.858Z,99803.28
2023-03-16T00:58:20.633Z,99809.97
2023-03-16T01:03:43.023Z,99809.97
2023-03-16T01:09:06.286Z,99814.72
2023-03-16T01:14:28.627Z,99828.00
2023-03-16T01:19:52.267Z,99844.03
2023-03-16T01:25:16.275Z,99851.22
2023-03-16T01:30:39.442Z,99810.06
2023-03-16T01:36:05.481Z,99847.78
2023-03-16T01:41:35.812Z,99846.91
2023-03-16T01:46:58.470Z,99828.91
2023-03-16T01:52:24.769Z,99840.34
2023-03-16T01:57:48.310Z,99825.94
2023-03-16T02:03:17.446Z,99839.56
2023-03-16T02:08:50.111Z,99844.53
2023-03-16T02:14:13.317Z,99850.91
2023-03-16T02:19:56.265Z,99844.78
2023-03-16T02:25:19.646Z,99838.66
2023-03-16T02:30:42.369Z,99828.41
2023-03-16T02:36:04.610Z,99827.88
2023-03-16T02:41:27.188Z,99846.66
2023-03-16T02:46:56.967Z,99856.34
2023-03-16T02:52:19.524Z,99821.41
2023-03-16T02:57:41.865Z,99832.00
2023-03-16T03:03:12.835Z,99837.56
2023-03-16T03:08:35.599Z,99847.13
2023-03-16T03:13:58.549Z,99835.03
2023-03-16T03:19:23.725Z,99810.00
2023-03-16T03:24:49.318Z,99839.16
2023-03-16T03:30:14.304Z,99834.91
2023-03-16T03:35:36.685Z,99800.63
2023-03-16T03:41:00.198Z,99813.28
2023-03-16T03:46:27.368Z,99812.84
2023-03-16T03:51:49.583Z,99791.72
2023-03-16T03:57:17.318Z,99799.81
2023-03-16T04:02:41.389Z,99811.91
2023-03-16T04:08:12.312Z,99789.97
2023-03-16T04:13:34.955Z,99787.91
2023-03-16T04:18:57.647Z,99777.66
2023-03-16T04:24:20.008Z,99802.66
2023-03-16T04:29:42.444Z,99795.81
2023-03-16T04:35:05.690Z,99815.00
2023-03-16T04:40:39.407Z,99804.94
2023-03-16T04:46:10.840Z,99802.69
2023-03-16T04:51:33.228Z,99825.16
2023-03-16T04:57:05.565Z,99823.66
2023-03-16T05:02:36.747Z,99811.97
2023-03-16T05:08:00.066Z,99821.91
2023-03-16T05:13:24.346Z,99808.63
2023-03-16T05:18:48.052Z,99805.50
2023-03-16T05:24:10.045Z,99819.03
2023-03-16T05:29:32.892Z,99820.06
2023-03-16T05:34:55.202Z,99821.94
2023-03-16T05:40:17.708Z,99830.81
2023-03-16T05:45:46.864Z,99829.97
2023-03-16T05:51:14.633Z,99826.44
2023-03-16T05:56:37.483Z,99823.22
2023-03-16T06:02:00.134Z,99836.59
2023-03-16T06:07:22.292Z,99856.56
2023-03-16T06:12:48.111Z,99838.59
2023-03-16T06:18:10.838Z,99860.44
2023-03-16T06:23:34.311Z,99837.88
2023-03-16T06:28:58.168Z,99848.56
2023-03-16T06:34:20.985Z,99859.47
2023-03-16T06:39:43.219Z,99870.44
2023-03-16T06:45:08.311Z,99862.59
2023-03-16T06:50:33.232Z,99868.13
2023-03-16T06:55:58.012Z,99864.28
2023-03-16T07:01:23.624Z,99853.81
2023-03-16T07:06:46.250Z,99849.50
2023-03-16T07:12:08.889Z,99858.34
2023-03-16T07:17:34.108Z,99856.75
2023-03-16T07:22:58.457Z,99820.31
2023-03-16T07:28:21.210Z,99840.16
2023-03-16T07:33:43.680Z,99832.22
2023-03-16T07:39:17.704Z,99863.25
2023-03-16T07:44:42.431Z,99830.72
2023-03-16T07:50:05.616Z,99826.56
2023-03-16T07:55:29.057Z,99847.66
2023-03-16T08:00:51.676Z,99838.31
2023-03-16T08:06:15.173Z,99851.25
2023-03-16T08:11:37.498Z,99822.19
2023-03-16T08:17:02.322Z,99858.28
2023-03-16T08:22:24.988Z,99854.31
2023-03-16T08:27:49.120Z,99846.94
2023-03-16T08:33:11.379Z,99833.72
2023-03-16T08:38:34.186Z,99867.28
2023-03-16T08:44:00.970Z,99861.16
2023-03-16T08:49:24.461Z,99861.06
2023-03-16T08:55:03.559Z,99856.88
2023-03-16T09:00:26.567Z,99861.06
2023-03-16T09:05:49.966Z,99839.84
2023-03-16T09:11:16.075Z,99854.59
2023-03-16T09:16:39.129Z,99855.75
2023-03-16T09:22:01.036Z,99858.41
2023-03-16T09:27:23.490Z,99856.09
2023-03-16T09:32:49.327Z,99854.44
2023-03-16T09:38:12.172Z,99833.47
2023-03-16T09:43:44.097Z,99865.78
2023-03-16T09:49:06.520Z,99838.31
2023-03-16T09:54:57.319Z,99835.66
2023-03-16T10:00:31.310Z,99866.25
2023-03-16T10:06:03.598Z,99834.19
2023-03-16T10:11:38.765Z,99857.69
2023-03-16T10:17:14.246Z,99833.72
2023-03-16T10:22:38.904Z,99853.03
2023-03-16T10:28:09.604Z,99838.03
2023-03-16T10:33:37.333Z,99842.13
2023-03-16T10:39:11.695Z,99831.19
2023-03-16T10:44:40.528Z,99823.66
2023-03-16T10:50:14.875Z,99829.50
2023-03-16T10:55:44.180Z,99837.09
2023-03-16T11:01:11.513Z,99849.00
2023-03-16T11:06:34.144Z,99850.44
2023-03-16T11:11:56.584Z,99817.38
2023-03-16T11:17:39.025Z,99845.19
2023-03-16T11:23:02.095Z,99831.13
2023-03-16T11:28:47.845Z,99851.13
2023-03-16T11:34:20.705Z,99849.97
2023-03-16T11:40:01.983Z,99842.13
2023-03-16T11:45:35.984Z,99844.09
2023-03-16T11:51:24.691Z,99804.28
2023-03-16T11:57:08.446Z,99802.28
2023-03-16T12:02:47.042Z,99827.22
2023-03-16T12:08:25.363Z,99828.00
2023-03-16T12:14:12.047Z,99839.44
2023-03-16T12:19:59.535Z,99839.59
2023-03-16T12:25:37.490Z,99818.97
2023-03-16T12:31:14.930Z,99843.44
2023-03-16T12:36:51.586Z,99844.38
2023-03-16T12:42:36.320Z,99848.31
2023-03-16T12:48:16.614Z,99853.50
2023-03-16T12:53:52.381Z,99831.84
2023-03-16T12:59:36.759Z,99852.38
2023-03-16T13:05:03.310Z,99852.84
2023-03-16T13:10:26.441Z,99852.97
2023-03-16T13:15:50.205Z,99846.88
2023-03-16T13:21:22.257Z,99854.38
2023-03-16T13:26:50.597Z,99852.19
2023-03-16T13:32:20.167Z,99845.72
2023-03-16T13:37:44.336Z,99845.72
2023-03-16T13:43:06.099Z,99845.41
2023-03-16T13:48:28.216Z,99849.31
2023-03-16T13:53:51.838Z,99854.50
2023-03-16T13:59:14.826Z,99848.53
2023-03-16T14:04:37.181Z,99847.28
2023-03-16T14:09:59.615Z,99855.56
2023-03-16T14:15:30.444Z,99857.34
2023-03-16T14:20:54.906Z,99832.06
2023-03-16T14:26:18.999Z,99850.50
2023-03-16T14:31:41.619Z,99854.81
2023-03-16T14:37:19.760Z,99848.56
2023-03-16T14:42:43.232Z,99850.50
2023-03-16T14:48:20.428Z,99850.72
2023-03-16T14:53:42.352Z,99847.41
2023-03-16T14:59:04.578Z,99846.00
2023-03-16T15:04:33.866Z,99851.19
2023-03-16T15:10:01.881Z,99853.16
2023-03-16T15:15:27.768Z,99861.13
2023-03-16T15:20:52.622Z,99865.06
2023-03-16T15:26:19.668Z,99871.63
2023-03-16T15:31:41.971Z,99868.41
2023-03-16T15:37:05.068Z,99861.94
2023-03-16T15:42:27.875Z,99847.19
2023-03-16T15:47:51.692Z,99847.63
2023-03-16T15:53:40.426Z,99851.91
2023-03-16T15:59:06.699Z,99862.50
2023-03-16T16:04:29.432Z,99833.22
2023-03-16T16:09:52.406Z,99868.88
2023-03-16T16:15:37.560Z,99868.41
2023-03-16T16:21:01.961Z,99872.66
2023-03-16T16:26:41.600Z,99876.47
2023-03-16T16:32:25.003Z,99876.47
2023-03-16T16:37:47.674Z,99879.72
2023-03-16T16:43:19.774Z,99874.53
2023-03-16T16:49:16.005Z,99883.88
2023-03-16T16:54:38.065Z,99870.25
2023-03-16T17:00:00.114Z,99890.56
2023-03-16T17:05:24.969Z,99904.78
2023-03-16T17:10:48.308Z,99915.38
2023-03-16T17:16:16.744Z,99893.34
2023-03-16T17:21:39.415Z,99902.09
2023-03-16T17:27:03.123Z,99873.81
2023-03-16T17:32:25.638Z,99885.25
2023-03-16T17:37:48.739Z,99919.41
2023-03-16T17:43:18.391Z,99935.69
2023-03-16T17:48:40.863Z,99934.75
2023-03-16T17:54:03.943Z,99943.06
2023-03-16T17:59:26.359Z,99936.38
2023-03-16T18:04:48.226Z,99931.63
2023-03-16T18:10:19.331Z,99943.41
2023-03-16T18:15:40.914Z,99936.81
2023-03-16T18:21:04.075Z,99957.25
2023-03-16T18:26:26.877Z,99930.81
2023-03-16T18:31:50.317Z,99962.22
2023-03-16T18:37:22.562Z,99963.91
2023-03-16T18:42:44.929Z,99981.72
2023-03-16T18:48:17.777Z,99974.91
2023-03-16T18:53:40.301Z,99977.56
2023-03-16T18:59:02.885Z,99990.72
2023-03-16T19:04:31.104Z,99975.25
2023-03-16T19:09:53.238Z,99924.22
2023-03-16T19:15:30.009Z,99949.63
2023-03-16T19:20:53.673Z,99962.91
2023-03-16T19:26:15.933Z,99956.78
2023-03-16T19:31:38.470Z,99949.06
2023-03-16T19:37:01.088Z,99927.81
2023-03-16T19:42:30.652Z,99932.06
2023-03-16T19:47:53.226Z,99958.19
2023-03-16T19:53:21.254Z,99947.56
2023-03-16T19:58:52.977Z,99937.19
2023-03-16T20:04:20.083Z,99944.09
2023-03-16T20:09:42.261Z,99941.91
2023-03-16T20:15:04.346Z,99957.25
2023-03-16T20:20:28.801Z,99947.53
2023-03-16T20:25:54.399Z,99958.06
2023-03-16T20:31:30.248Z,99963.00
2023-03-16T20:37:26.864Z,99925.84
2023-03-16T20:42:49.937Z,99977.69
2023-03-16T20:48:16.262Z,99971.56
2023-03-16T20:53:38.514Z,99964.97
2023-03-16T20:59:00.634Z,99974.09
2023-03-16T21:04:28.118Z,99985.53
2023-03-16T21:09:51.528Z,99983.69
2023-03-16T21:15:24.879Z,99991.63
2023-03-16T21:20:49.178Z,99995.31
2023-03-16T21:26:21.760Z,99995.09
2023-03-16T21:31:44.487Z,100003.06
2023-03-16T21:37:26.039Z,100011.03
2023-03-16T21:42:49.388Z,99999.56
2023-03-16T21:48:39.600Z,99973.47
2023-03-16T21:54:02.334Z,100029.81
2023-03-16T21:59:35.588Z,100001.88
2023-03-16T22:05:42.157Z,99983.84
2023-03-16T22:11:12.974Z,100040.41
2023-03-16T22:16:41.304Z,100007.00
2023-03-16T22:22:14.856Z,100065.34
2023-03-16T22:27:44.753Z,100058.19
2023-03-16T22:33:08.290Z,100017.38
2023-03-16T22:38:30.715Z,100051.38
2023-03-16T22:43:53.360Z,100072.25
2023-03-16T22:49:22.717Z,100076.66
2023-03-16T22:54:46.807Z,100062.53
2023-03-16T23:00:12.263Z,100062.88
2023-03-16T23:05:34.480Z,100076.16
2023-03-16T23:10:56.931Z,100070.16
2023-03-16T23:16:22.655Z,100077.66
2023-03-16T23:21:45.302Z,100079.97
2023-03-16T23:27:18.198Z,100084.25
2023-03-16T23:32:39.919Z,100078.81
2023-03-16T23:38:02.103Z,100078.66
2023-03-16T23:43:24.585Z,100075.44
2023-03-16T23:48:49.019Z,100073.66
2023-03-16T23:54:19.691Z,100073.22
2023-03-16T23:59:42.869Z,100129.56
